METAR stanice u blizini

 

LYBE - Beograd / Surčin, Srbija
Ažurirano: 08/12/2023 13:30
Mostly Cloudy
Mostly Cloudy
 Pravac vetra I
Vetar: I 9 km/h
Temperatura: 3°C
Osećaj hladnoće: 0°C
Tačka rose: 1°C
Vlažnost: 87%
Pritisak: 1019 hPa
Oblaci: Mostly Cloudy
Vidljivost: 7 km
Cloud details: Partly Cloudy 396 m
Mostly Cloudy 610 m
2023/12/08 12:30 LYBE 081230Z 08005KT 7000 SCT013 BKN020 03/01 Q1019 NOSIG
LYBT - Beograd / Batajnica, Srbija
Ažurirano: 08/12/2023 13:30
Mostly Cloudy
Mostly Cloudy
 Pravac vetra I
Vetar: I 7 km/h
Temperatura: 3°C
Osećaj hladnoće: 1°C
Tačka rose: 1°C
Vlažnost: 87%
Pritisak: 1020 hPa
Oblaci: Mostly Cloudy
Vidljivost: 6 km
Cloud details: Mostly Cloudy 305 m
Mostly Cloudy 518 m
2023/12/08 12:30 LYBT 081230Z 08004KT 6000 BKN010 BKN017 03/01 Q1020 BECMG BKN017
LYVR - Vršac, Srbija
Ažurirano: 08/12/2023 13:30
Partly Cloudy
Partly Cloudy
 Pravac vetra varies
Vetar: varies 4 km/h
Temperatura: 3°C
Tačka rose: -1°C
Vlažnost: 75%
Pritisak: 1020 hPa
Oblaci: Partly Cloudy
Vidljivost: 10 km
Cloud details: Few Clouds 610 m
Partly Cloudy 792 m
2023/12/08 12:30 LYVR 081230Z VRB02KT 9999 FEW020 SCT026 03/M01 Q1020 NOSIG
 
LYKV - Lađevci, Srbija
Ažurirano: 08/12/2023 13:30
Mostly Cloudy
Mostly Cloudy
 Pravac vetra SSI
Vetar: SSI 6 km/h
Temperatura: 5°C
Tačka rose: 1°C
Vlažnost: 76%
Pritisak: 1018 hPa
Oblaci: Mostly Cloudy
Vidljivost: 10 km
Cloud details: Few Clouds 610 m
Mostly Cloudy 1219 m
2023/12/08 12:30 LYKV 081230Z 02003KT 350V080 9999 FEW020 BKN040 05/01 Q1018 NOSIG
LYNI - Niš, Srbija
Ažurirano: 08/12/2023 13:30
Mostly Cloudy
Mostly Cloudy
 Pravac vetra ZSZ
Vetar: ZSZ 11 km/h
Temperatura: 3°C
Osećaj hladnoće: 0°C
Tačka rose: 2°C
Vlažnost: 93%
Pritisak: 1019 hPa
Oblaci: Mostly Cloudy
Vidljivost: 10 km
Cloud details: Partly Cloudy 457 m
Mostly Cloudy 1006 m
2023/12/08 12:30 LYNI 081230Z 30006KT 270V330 9999 SCT015 BKN033 03/02 Q1019 NOSIG
BKPR - Priština, Srbija
Ažurirano: 08/12/2023 14:00
Mostly Cloudy
Mostly Cloudy
 Pravac vetra SSI
Vetar: SSI 6 km/h
Temperatura: 3°C
Tačka rose: -2°C
Vlažnost: 70%
Pritisak: 1016 hPa
Oblaci: Mostly Cloudy
Vidljivost: 10 km
Cloud details: Partly Cloudy 1067 m
Mostly Cloudy 1829 m
2023/12/08 13:00 BKPR 081300Z 03003KT 350V080 9999 SCT035 BKN060 03/M02 Q1016 NOSIG
 
LHPP - Pecs / Pogany, Hungary
Ažurirano: 08/12/2023 13:45
Oblačno
Oblačno
 Pravac vetra IJI
Vetar: IJI 9 km/h
Oblaci: Oblačno
Vidljivost: 10 km
Cloud details: Oblačno 427 m
2023/12/08 12:45 LHPP 081245Z AUTO 12005KT 080V150 9999 OVC014 02/M
LHUD - Szeged, Hungary
Ažurirano: 04/07/2019 01:45
NOT Current
Vedro
Vedro
 Pravac vetra S
Vetar: S 7 km/h
Temperatura: 18°C
Tačka rose: 13°C
Vlažnost: 73%
Pritisak: 1019 hPa
Pregled: Vedro
Vidljivost: greater than 10 km
2019/07/03 23:45 LHUD 032345Z 35004KT CAVOK 18/13 Q1019
LRTR - Timisoara, Romania
Ažurirano: 08/12/2023 13:30
Oblačno
Oblačno
 Pravac vetra J
Vetar: J 7 km/h
Temperatura: 2°C
Osećaj hladnoće: 0°C
Tačka rose: 0°C
Vlažnost: 87%
Pritisak: 1019 hPa
Oblaci: Oblačno
Vidljivost: 10 km
Cloud details: Oblačno 457 m
2023/12/08 12:30 LRTR 081230Z 18004KT 140V210 9999 OVC015 02/M00 Q1019 NOSIG
 
LRCV - Craiova, Romania
Ažurirano: 08/12/2023 13:30
Oblačno
Oblačno
 Pravac vetra I
Vetar: I 7 km/h
Temperatura: 2°C
Osećaj hladnoće: 0°C
Tačka rose: 2°C
Vlažnost: 100%
Pritisak: 1018 hPa
Oblaci: Oblačno
Vidljivost: 7 km
Cloud details: Oblačno 122 m
2023/12/08 12:30 LRCV 081230Z 09004KT 7000 OVC004 02/02 Q1018
LBSF - Sofia, Bulgaria
Ažurirano: 08/12/2023 14:00
Oblačno
Oblačno
 Pravac vetra SSZ
Vetar: SSZ 9 km/h
Temperatura: 2°C
Osećaj hladnoće: -1°C
Tačka rose: -2°C
Vlažnost: 75%
Pritisak: 1016 hPa
Oblaci: Oblačno
Vidljivost: 10 km
Cloud details: Few Clouds 640 m
Mostly Cloudy 732 m
Oblačno 914 m
2023/12/08 13:00 LBSF 081300Z 34005KT 290V010 9999 FEW021 BKN024 OVC030 02/M02 Q1016 NOSIG
LWSK - Skoplje, Makedonija
Ažurirano: 08/12/2023 14:00
Oblačno
Oblačno
 Pravac vetra S
Vetar: S 9 km/h
Temperatura: 5°C
Osećaj hladnoće: 3°C
Tačka rose: 0°C
Vlažnost: 70%
Pritisak: 1018 hPa
Oblaci: Oblačno
Vidljivost: 10 km
Cloud details: Mostly Cloudy 1097 m
Oblačno 2134 m
2023/12/08 13:00 LWSK 081300Z 01005KT 9999 BKN036 OVC070 05/00 Q1018 NOSIG
 
LYPG - Podgorica, Crna Gora
Ažurirano: 08/12/2023 13:30
Vedro
Vedro
 Pravac vetra JI
Vetar: JI 7 km/h
Temperatura: 10°C
Osećaj hladnoće: 9°C
Tačka rose: -2°C
Vlažnost: 43%
Pritisak: 1016 hPa
Pregled: Vedro
Vidljivost: greater than 10 km
2023/12/08 12:30 LYPG 081230Z 14004KT 110V190 CAVOK 10/M02 Q1016 NOSIG
LQSA - Sarajevo, Bosna i Hercegovina
Ažurirano: 08/12/2023 13:30
Few Clouds
Few Clouds
 Pravac vetra Z
Vetar: Z 15 km/h
Temperatura: 4°C
Osećaj hladnoće: 1°C
Tačka rose: 0°C
Vlažnost: 75%
Pritisak: 1016 hPa
Oblaci: Few Clouds
Vidljivost: 10 km
Cloud details: Few Clouds 1219 m
2023/12/08 12:30 LQSA 081230Z 28008KT 250V310 9999 FEW040 04/M00 Q1016 NOSIG
LDOS - Osijek, Hrvatksa
Ažurirano: 08/12/2023 14:00
Oblačno
Oblačno
 Pravac vetra varies
Vetar: varies 4 km/h
Temperatura: 3°C
Tačka rose: -1°C
Vlažnost: 75%
Pritisak: 1019 hPa
Oblaci: Oblačno
Vidljivost: 10 km
Cloud details: Oblačno 396 m
2023/12/08 13:00 LDOS 081300Z VRB02KT 9999 OVC013 03/M01 Q1019